Time;durP1;ratioP1;P1;durP2;ratioP2;P2;SDS_P1;SDS_P2;PMS_P1;PMS_P2;Temp;Humidity;BMP_temperature;BMP_pressure;BME280_temperature;BME280_humidity;BME280_pressure;Samples;Min_cycle;Max_cycle;Signal;HPM_P1;HPM_P2
2022/09/18 00:02:13;;;;;;;8.57;2.58;;;;;;;8.15;91.88;98234.41;8380325;28;20059;-82
2022/09/18 00:06:17;;;;;;;14.65;2.85;;;;;;;8.14;91.55;98230.16;8408599;28;20043;-82
2022/09/18 00:10:18;;;;;;;10.88;2.85;;;;;;;8.07;91.87;98234.09;8398604;28;20484;-82
2022/09/18 00:14:21;;;;;;;8.10;2.53;;;;;;;8.01;91.97;98227.25;8405573;28;20044;-82
2022/09/18 00:18:21;;;;;;;9.13;2.67;;;;;;;7.99;92.14;98221.41;8400761;28;20055;-83
2022/09/18 00:22:23;;;;;;;12.90;2.38;;;;;;;7.95;92.02;98225.81;8374866;28;20048;-82
2022/09/18 00:26:27;;;;;;;10.63;2.55;;;;;;;7.86;92.00;98227.69;8406867;28;20051;-83
2022/09/18 00:30:28;;;;;;;13.38;2.75;;;;;;;7.78;92.19;98220.38;8403181;28;20485;-83
2022/09/18 00:34:28;;;;;;;14.00;2.60;;;;;;;7.72;92.63;98215.50;8403736;28;20083;-82
2022/09/18 00:38:31;;;;;;;11.23;2.55;;;;;;;7.66;92.56;98217.53;8413621;28;20118;-82
2022/09/18 00:42:31;;;;;;;9.57;2.67;;;;;;;7.60;92.49;98218.75;8396663;28;20052;-83
2022/09/18 00:46:35;;;;;;;9.15;2.10;;;;;;;7.49;92.68;98217.44;8407403;28;20136;-82
2022/09/18 00:50:35;;;;;;;7.88;2.58;;;;;;;7.44;92.26;98214.91;8342615;28;20049;-83
2022/09/18 00:54:42;;;;;;;12.05;2.33;;;;;;;7.38;92.45;98221.50;8361545;28;20065;-82
2022/09/18 00:58:43;;;;;;;5.43;2.17;;;;;;;7.39;92.06;98213.13;8376782;28;20527;-83
2022/09/18 01:02:45;;;;;;;9.48;2.33;;;;;;;7.37;92.16;98207.28;8361417;28;20049;-83
2022/09/18 01:07:11;;;;;;;15.68;2.60;;;;;;;7.29;91.92;98202.66;8374861;28;20152;-83
2022/09/18 01:11:15;;;;;;;9.05;2.60;;;;;;;7.19;91.95;98202.94;8366699;28;20044;-83
2022/09/18 01:15:15;;;;;;;6.85;2.22;;;;;;;7.20;91.90;98199.13;8357855;28;20572;-83
2022/09/18 01:20:24;;;;;;;10.90;2.33;;;;;;;7.15;91.87;98186.63;8360499;28;20056;-83
2022/09/18 01:24:27;;;;;;;8.35;2.25;;;;;;;7.11;91.71;98198.28;8190767;28;20183;-82
2022/09/18 01:28:34;;;;;;;9.02;2.72;;;;;;;7.07;91.81;98192.75;8203384;28;20160;-82
2022/09/18 01:32:53;;;;;;;11.05;2.88;;;;;;;7.09;92.43;98193.22;8196485;28;20122;-83
2022/09/18 01:37:09;;;;;;;12.17;2.40;;;;;;;7.12;92.55;98192.63;8201714;28;20081;-82
2022/09/18 01:41:13;;;;;;;18.92;3.55;;;;;;;7.14;92.63;98201.16;8199762;28;20052;-82
2022/09/18 01:45:22;;;;;;;12.23;2.97;;;;;;;7.24;92.70;98199.31;8169014;28;20058;-81
2022/09/18 01:49:28;;;;;;;13.48;2.97;;;;;;;7.37;92.42;98203.78;8198119;28;20393;-82
2022/09/18 01:53:41;;;;;;;14.40;3.55;;;;;;;7.47;92.33;98203.53;8210159;28;20138;-82
2022/09/18 01:57:59;;;;;;;20.65;3.42;;;;;;;7.56;92.33;98207.06;8253838;28;20053;-82
2022/09/18 02:02:02;;;;;;;18.10;3.47;;;;;;;7.65;92.65;98205.19;8407840;28;20496;-82
2022/09/18 02:06:16;;;;;;;9.05;2.95;;;;;;;7.75;92.35;98193.34;8406800;28;20630;-81
2022/09/18 02:10:18;;;;;;;12.82;3.33;;;;;;;7.81;92.77;98200.97;8411313;28;20414;-83
2022/09/18 02:14:24;;;;;;;13.98;3.55;;;;;;;7.90;92.37;98185.63;8412732;28;20108;-82
2022/09/18 02:18:29;;;;;;;12.20;2.83;;;;;;;7.98;92.33;98192.91;8404225;28;20478;-82
2022/09/18 02:22:31;;;;;;;13.45;3.00;;;;;;;8.00;92.68;98195.31;8399193;28;20088;-82
2022/09/18 02:26:34;;;;;;;25.17;3.10;;;;;;;8.02;93.13;98196.59;8404371;28;20500;-82
2022/09/18 02:30:37;;;;;;;21.13;3.25;;;;;;;8.03;93.42;98195.50;8402776;28;20053;-81
2022/09/18 02:34:38;;;;;;;10.90;2.50;;;;;;;8.06;93.75;98184.09;8405739;28;20040;-81
2022/09/18 02:39:13;;;;;;;9.52;2.63;;;;;;;8.11;93.66;98179.66;8407870;28;20059;-82
2022/09/18 02:43:29;;;;;;;14.10;2.60;;;;;;;8.14;93.88;98173.66;8396439;28;20072;-82
2022/09/18 02:47:50;;;;;;;7.60;1.90;;;;;;;8.17;94.11;98173.03;8395506;28;20037;-82
2022/09/18 02:51:58;;;;;;;10.68;1.92;;;;;;;8.22;93.83;98164.81;8405206;28;20037;-82
2022/09/18 02:56:09;;;;;;;5.97;2.15;;;;;;;8.27;93.98;98175.41;8398774;28;20604;-83
2022/09/18 03:00:14;;;;;;;6.82;1.63;;;;;;;8.28;93.96;98163.53;8391511;28;20097;-83
2022/09/18 03:04:21;;;;;;;8.30;1.88;;;;;;;8.27;94.36;98167.34;8379607;28;20513;-83
2022/09/18 03:08:22;;;;;;;6.25;1.77;;;;;;;8.33;93.99;98176.88;8371718;28;20079;-83
2022/09/18 03:12:26;;;;;;;8.73;2.00;;;;;;;8.36;94.42;98170.84;8373000;28;20911;-83
2022/09/18 03:16:27;;;;;;;8.98;1.67;;;;;;;8.38;94.50;98169.44;8361458;28;20052;-82
2022/09/18 03:20:28;;;;;;;3.25;1.30;;;;;;;8.39;95.03;98170.22;8369769;28;20410;-83
2022/09/18 03:24:28;;;;;;;5.18;1.40;;;;;;;8.37;95.28;98177.81;8371917;28;20044;-82
2022/09/18 03:28:31;;;;;;;3.65;1.08;;;;;;;8.43;95.30;98176.56;8365524;28;20115;-82
2022/09/18 03:32:31;;;;;;;5.50;1.35;;;;;;;8.44;95.64;98180.81;8377106;28;20049;-83
2022/09/18 03:36:32;;;;;;;5.38;1.83;;;;;;;8.43;96.03;98166.59;8368816;28;20049;-85
2022/09/18 03:40:33;;;;;;;3.15;1.40;;;;;;;8.43;96.20;98168.47;8385279;28;20049;-83
2022/09/18 03:44:34;;;;;;;3.13;1.40;;;;;;;8.44;96.46;98167.38;8398603;28;20036;-82
2022/09/18 03:48:35;;;;;;;6.55;1.50;;;;;;;8.46;96.32;98165.13;8401513;28;20051;-81
2022/09/18 03:52:36;;;;;;;4.45;1.30;;;;;;;8.45;96.62;98158.19;8416317;28;20056;-82
2022/09/18 03:56:37;;;;;;;2.13;1.30;;;;;;;8.48;96.63;98168.31;8410928;28;20093;-83
2022/09/18 04:00:38;;;;;;;3.10;1.25;;;;;;;8.42;97.81;98159.63;8400325;28;20041;-81
2022/09/18 04:04:42;;;;;;;3.30;1.30;;;;;;;8.42;98.25;98158.81;8407354;28;20071;-80
2022/09/18 04:08:43;;;;;;;4.90;1.30;;;;;;;8.40;98.91;98161.06;8402948;28;20047;-84
2022/09/18 04:12:44;;;;;;;4.28;1.38;;;;;;;8.41;99.52;98162.59;8415891;28;20048;-81
2022/09/18 04:16:45;;;;;;;3.40;1.40;;;;;;;8.48;99.06;98171.00;8396743;28;20512;-81
2022/09/18 04:20:46;;;;;;;5.65;1.73;;;;;;;8.48;99.22;98162.94;8399323;28;20059;-80
2022/09/18 04:24:49;;;;;;;6.57;1.80;;;;;;;8.49;99.56;98159.16;8404071;28;20052;-81
2022/09/18 04:28:49;;;;;;;4.90;1.65;;;;;;;8.48;100.00;98162.94;8411230;28;20064;-81
2022/09/18 04:32:51;;;;;;;3.83;1.63;;;;;;;8.48;100.00;98163.72;8398327;28;20051;-83
2022/09/18 04:36:52;;;;;;;2.63;1.77;;;;;;;8.50;100.00;98160.72;8403586;28;20041;-81
2022/09/18 04:40:57;;;;;;;6.25;1.80;;;;;;;8.52;100.00;98158.50;8409092;28;20402;-80
2022/09/18 04:44:58;;;;;;;3.80;1.63;;;;;;;8.55;100.00;98168.63;8401587;28;20044;-80
2022/09/18 04:48:59;;;;;;;3.38;1.98;;;;;;;8.55;100.00;98162.47;8397346;28;20067;-80
2022/09/18 04:52:59;;;;;;;3.80;1.90;;;;;;;8.55;100.00;98162.47;8416348;28;20048;-81
2022/09/18 04:57:01;;;;;;;5.32;1.95;;;;;;;8.55;100.00;98168.63;8410925;28;20048;-84
2022/09/18 05:01:02;;;;;;;4.03;2.05;;;;;;;8.56;100.00;98175.63;8411230;28;20490;-81
2022/09/18 05:05:03;;;;;;;5.15;1.92;;;;;;;8.54;100.00;98177.81;8394965;28;20441;-82
2022/09/18 05:09:07;;;;;;;3.50;1.95;;;;;;;8.54;100.00;98188.59;8372559;28;20049;-82
2022/09/18 05:13:08;;;;;;;5.20;1.92;;;;;;;8.53;100.00;98180.81;8404883;28;20045;-82
2022/09/18 05:17:09;;;;;;;5.10;2.10;;;;;;;8.53;100.00;98176.22;8394562;28;20107;-82
2022/09/18 05:21:15;;;;;;;4.10;1.92;;;;;;;8.57;100.00;98171.78;8390148;28;20066;-81
2022/09/18 05:25:16;;;;;;;2.97;1.92;;;;;;;8.61;100.00;98178.13;8404986;28;20061;-83
2022/09/18 05:29:20;;;;;;;7.28;2.22;;;;;;;8.63;100.00;98183.97;8406290;28;20059;-82
2022/09/18 05:33:21;;;;;;;5.45;2.38;;;;;;;8.68;100.00;98178.44;8336088;28;20068;-85
2022/09/18 05:37:22;;;;;;;6.25;2.65;;;;;;;8.70;100.00;98178.91;8416311;28;20052;-85
2022/09/18 05:41:23;;;;;;;7.93;2.70;;;;;;;8.72;100.00;98184.78;8361979;28;20475;-84
2022/09/18 05:45:24;;;;;;;4.53;2.50;;;;;;;8.73;100.00;98172.88;8350591;28;20041;-82
2022/09/18 05:49:25;;;;;;;5.72;2.40;;;;;;;8.78;100.00;98188.06;8361500;28;20061;-84
2022/09/18 05:53:26;;;;;;;5.78;2.25;;;;;;;8.80;100.00;98181.28;8361565;28;20057;-84
2022/09/18 05:57:27;;;;;;;3.20;1.80;;;;;;;8.86;100.00;98171.91;8361431;28;20098;-84
2022/09/18 06:01:29;;;;;;;4.88;1.70;;;;;;;8.97;100.00;98163.50;8361054;28;20067;-83
2022/09/18 06:05:31;;;;;;;3.60;1.63;;;;;;;9.02;100.00;98166.03;8361149;28;20055;-83
2022/09/18 06:09:32;;;;;;;6.03;1.35;;;;;;;9.01;100.00;98175.22;8326567;28;20041;-81
2022/09/18 06:13:33;;;;;;;4.28;1.10;;;;;;;8.99;100.00;98166.69;8400080;28;20075;-84
2022/09/18 06:17:34;;;;;;;10.50;1.67;;;;;;;8.99;100.00;98177.44;8406937;28;20052;-81
2022/09/18 06:21:35;;;;;;;1.70;1.10;;;;;;;8.98;99.81;98175.88;8403561;28;20521;-80
2022/09/18 06:25:36;;;;;;;4.03;1.02;;;;;;;9.03;99.57;98178.38;8373481;28;20052;-80
2022/09/18 06:29:36;;;;;;;2.25;1.05;;;;;;;9.06;98.98;98178.53;8370731;28;20578;-81
2022/09/18 06:33:37;;;;;;;4.65;1.35;;;;;;;9.08;99.30;98180.91;8348050;28;20094;-83
2022/09/18 06:37:39;;;;;;;3.53;1.27;;;;;;;9.08;99.16;98191.69;8338899;28;20045;-83
2022/09/18 06:41:41;;;;;;;5.07;1.45;;;;;;;9.07;99.31;98195.47;8313845;28;20491;-83
2022/09/18 06:45:50;;;;;;;1.55;1.35;;;;;;;9.12;99.56;98192.63;8297764;28;20037;-84
2022/09/18 06:49:51;;;;;;;4.32;1.80;;;;;;;9.15;99.23;98186.56;8333996;28;20124;-83
2022/09/18 06:53:52;;;;;;;6.25;2.10;;;;;;;9.17;99.52;98195.13;8355458;28;20056;-84
2022/09/18 06:57:54;;;;;;;5.82;2.10;;;;;;;9.18;99.44;98191.34;8395728;28;20040;-83
2022/09/18 07:01:55;;;;;;;6.95;2.72;;;;;;;9.18;99.77;98191.34;8388819;28;20386;-82
2022/09/18 07:05:56;;;;;;;4.57;3.03;;;;;;;9.25;99.60;98205.09;8358878;28;20045;-83
2022/09/18 07:09:57;;;;;;;7.57;3.00;;;;;;;9.30;99.65;98199.53;8395208;28;20067;-80
2022/09/18 07:13:58;;;;;;;5.75;3.17;;;;;;;9.35;99.47;98202.06;8394936;28;20389;-84
2022/09/18 07:18:00;;;;;;;5.88;3.47;;;;;;;9.42;99.01;98202.34;8387232;28;20064;-84
2022/09/18 07:22:02;;;;;;;8.00;4.00;;;;;;;9.48;98.90;98201.06;8392738;28;20407;-83
2022/09/18 07:26:03;;;;;;;8.25;4.30;;;;;;;9.53;99.02;98208.97;8395317;28;20102;-82
2022/09/18 07:30:05;;;;;;;11.60;4.55;;;;;;;9.63;98.71;98203.19;8380058;28;20048;-80
2022/09/18 07:34:07;;;;;;;9.75;4.63;;;;;;;9.80;98.52;98201.53;8375319;28;20057;-80
2022/09/18 07:38:09;;;;;;;7.88;4.18;;;;;;;9.97;98.04;98206.84;8396186;28;20045;-81
2022/09/18 07:42:13;;;;;;;8.73;4.90;;;;;;;10.20;97.57;98216.28;8385360;28;20045;-82
2022/09/18 07:46:14;;;;;;;5.72;3.63;;;;;;;10.32;96.84;98213.63;8387135;28;20425;-82
2022/09/18 07:50:15;;;;;;;11.48;3.78;;;;;;;10.48;96.18;98201.13;8395749;28;20059;-83
2022/09/18 07:54:16;;;;;;;5.15;3.17;;;;;;;10.69;95.66;98211.13;8385969;28;20195;-82
2022/09/18 07:58:17;;;;;;;6.65;3.03;;;;;;;10.83;95.13;98214.34;8388515;28;20048;-84
2022/09/18 08:02:18;;;;;;;7.60;3.15;;;;;;;10.95;94.53;98214.38;8396102;28;20040;-82
2022/09/18 08:06:19;;;;;;;7.25;3.50;;;;;;;10.93;94.41;98216.66;8405403;28;20051;-82
2022/09/18 08:10:22;;;;;;;4.63;3.08;;;;;;;10.88;94.41;98216.84;8413627;28;20060;-82
2022/09/18 08:14:22;;;;;;;6.05;3.30;;;;;;;10.85;94.35;98228.31;8416217;28;20084;-81
2022/09/18 08:18:24;;;;;;;5.88;3.03;;;;;;;10.83;94.46;98233.25;8402758;28;20089;-81
2022/09/18 08:22:25;;;;;;;8.43;3.40;;;;;;;10.75;94.87;98231.41;8408860;28;20124;-80
2022/09/18 08:26:26;;;;;;;6.18;3.60;;;;;;;10.67;96.00;98232.28;8403786;28;20052;-81
2022/09/18 08:30:28;;;;;;;7.20;4.22;;;;;;;10.78;96.13;98230.78;8409384;28;20089;-80
2022/09/18 08:34:30;;;;;;;9.50;4.15;;;;;;;10.86;96.10;98243.41;8359024;28;20505;-81
2022/09/18 08:38:31;;;;;;;8.38;3.80;;;;;;;10.78;96.36;98236.97;8407732;28;20049;-81
2022/09/18 08:42:35;;;;;;;7.00;3.35;;;;;;;10.73;96.70;98233.66;8389940;28;20060;-81
2022/09/18 08:46:51;;;;;;;7.88;3.05;;;;;;;10.74;96.74;98240.63;8390741;28;20482;-83
2022/09/18 08:51:03;;;;;;;5.22;2.75;;;;;;;10.75;96.92;98234.91;8393838;28;20067;-82
2022/09/18 08:55:11;;;;;;;4.90;2.50;;;;;;;10.88;96.90;98235.75;8389837;28;20487;-83
2022/09/18 08:59:35;;;;;;;6.53;2.63;;;;;;;11.02;96.31;98237.06;8401017;28;20052;-83
2022/09/18 09:03:54;;;;;;;5.82;2.30;;;;;;;11.32;95.74;98245.81;8398797;28;20093;-83
2022/09/18 09:08:17;;;;;;;3.63;2.15;;;;;;;11.36;95.02;98235.94;8380802;28;20086;-83
2022/09/18 09:12:50;;;;;;;3.88;2.05;;;;;;;11.09;95.54;98236.53;8427074;28;20289;-80
2022/09/18 09:17:02;;;;;;;6.43;2.13;;;;;;;10.93;96.21;98254.47;8399549;28;20048;-83
2022/09/18 09:21:20;;;;;;;6.97;2.17;;;;;;;10.80;96.56;98250.13;8348144;28;20044;-81
2022/09/18 09:25:30;;;;;;;6.05;1.88;;;;;;;10.69;97.01;98254.31;8360317;28;20056;-80
2022/09/18 09:29:34;;;;;;;2.90;1.60;;;;;;;10.59;98.08;98267.13;8398446;28;20581;-81
2022/09/18 09:33:43;;;;;;;3.00;1.75;;;;;;;10.47;98.60;98272.44;8398180;28;20067;-80
2022/09/18 09:37:45;;;;;;;4.87;1.73;;;;;;;10.42;99.22;98272.63;8397586;28;20048;-79
2022/09/18 09:42:02;;;;;;;8.60;3.47;;;;;;;10.46;99.12;98273.56;8401400;28;20041;-82
2022/09/18 09:46:30;;;;;;;2.17;1.25;;;;;;;10.30;100.00;98279.84;8402968;28;20044;-78
2022/09/18 09:50:35;;;;;;;2.92;1.88;;;;;;;10.26;100.00;98290.50;8296008;28;20065;-80
2022/09/18 09:54:38;;;;;;;4.25;1.60;;;;;;;10.31;100.00;98295.72;8295339;28;20077;-82
2022/09/18 09:59:09;;;;;;;3.58;1.40;;;;;;;10.36;100.00;98305.56;8270551;28;20041;-82
2022/09/18 10:03:44;;;;;;;4.30;1.20;;;;;;;10.42;100.00;98299.63;8259335;28;20053;-79
2022/09/18 10:07:49;;;;;;;1.60;1.20;;;;;;;10.34;100.00;98308.56;8283207;28;20313;-83
2022/09/18 10:12:03;;;;;;;2.53;1.30;;;;;;;10.18;100.00;98310.22;8253028;28;20046;-83
2022/09/18 10:16:22;;;;;;;1.77;1.08;;;;;;;10.18;100.00;98318.34;8260228;28;20566;-81
2022/09/18 10:20:28;;;;;;;3.73;1.63;;;;;;;10.12;100.00;98327.69;8247131;28;20592;-80
2022/09/18 10:24:46;;;;;;;4.32;1.70;;;;;;;10.23;100.00;98339.72;8273725;28;20305;-80
2022/09/18 10:28:47;;;;;;;8.07;1.95;;;;;;;10.28;100.00;98336.84;8349237;28;20059;-83
2022/09/18 10:32:48;;;;;;;8.85;2.10;;;;;;;10.35;100.00;98347.94;8363548;28;20060;-81
2022/09/18 10:36:49;;;;;;;8.95;2.20;;;;;;;10.36;100.00;98357.63;8399079;28;20140;-79
2022/09/18 10:40:50;;;;;;;8.48;2.47;;;;;;;10.46;100.00;98359.94;8397323;28;20049;-79
2022/09/18 10:44:57;;;;;;;8.40;2.78;;;;;;;10.38;100.00;98374.25;8395158;28;20049;-81
2022/09/18 10:49:03;;;;;;;6.60;2.63;;;;;;;10.32;100.00;98359.38;8309999;28;20053;-81
2022/09/18 10:53:31;;;;;;;10.52;2.72;;;;;;;10.20;100.00;98367.38;8342492;28;20137;-83
2022/09/18 10:57:39;;;;;;;11.57;2.97;;;;;;;10.17;100.00;98378.81;8228950;28;20082;-80
2022/09/18 11:01:43;;;;;;;7.13;2.50;;;;;;;10.21;100.00;98374.34;8228903;28;20050;-79
2022/09/18 11:06:17;;;;;;;10.52;2.60;;;;;;;10.23;100.00;98377.50;8227092;28;20086;-81
2022/09/18 11:10:24;;;;;;;9.75;2.85;;;;;;;10.16;100.00;98382.59;8178839;29;20513;-80
2022/09/18 11:14:36;;;;;;;7.78;2.17;;;;;;;10.09;100.00;98393.09;8154136;29;20529;-80
2022/09/18 11:18:38;;;;;;;9.93;2.40;;;;;;;10.06;100.00;98382.94;8162966;29;20066;-80
2022/09/18 11:22:41;;;;;;;9.52;2.33;;;;;;;10.09;100.00;98398.50;8173458;29;20482;-82
2022/09/18 11:26:54;;;;;;;7.78;2.33;;;;;;;10.04;100.00;98395.97;8186330;28;20058;-82
2022/09/18 11:31:01;;;;;;;12.68;2.22;;;;;;;10.21;100.00;98395.91;8198359;28;20189;-82
2022/09/18 11:35:04;;;;;;;10.75;2.53;;;;;;;10.28;100.00;98407.00;8288693;28;20065;-81
2022/09/18 11:39:13;;;;;;;15.57;3.20;;;;;;;10.29;100.00;98397.81;8282589;28;20376;-83
2022/09/18 11:43:25;;;;;;;13.93;2.65;;;;;;;10.31;100.00;98406.34;8286093;28;20049;-81
2022/09/18 11:47:42;;;;;;;12.93;2.80;;;;;;;10.40;100.00;98398.25;8361813;28;20056;-81
2022/09/18 11:52:01;;;;;;;15.68;3.97;;;;;;;10.49;100.00;98413.28;8374015;28;20055;-81
2022/09/18 11:56:05;;;;;;;16.55;3.80;;;;;;;10.50;100.00;98408.69;8372524;28;20057;-81
2022/09/18 12:00:19;;;;;;;25.98;3.67;;;;;;;10.48;100.00;98400.88;8395241;28;20040;-79
2022/09/18 12:04:51;;;;;;;18.95;3.58;;;;;;;10.48;100.00;98400.09;8365756;28;20375;-81
2022/09/18 12:08:55;;;;;;;16.27;2.92;;;;;;;10.61;100.00;98398.31;8349637;28;20046;-80
2022/09/18 12:13:30;;;;;;;20.25;3.13;;;;;;;10.81;100.00;98402.94;8364677;28;20037;-79
2022/09/18 12:17:35;;;;;;;19.77;3.05;;;;;;;10.87;100.00;98402.44;8365873;28;20053;-80
2022/09/18 12:21:55;;;;;;;16.80;2.50;;;;;;;10.92;99.79;98398.75;8339895;28;20048;-83
2022/09/18 12:26:26;;;;;;;17.75;3.22;;;;;;;11.04;99.44;98401.53;8339496;28;20633;-85
2022/09/18 12:30:36;;;;;;;22.20;3.00;;;;;;;11.16;99.25;98382.69;8340007;28;20076;-82
2022/09/18 12:35:02;;;;;;;17.48;3.60;;;;;;;11.34;98.72;98384.13;8354829;28;20060;-82
2022/09/18 12:39:26;;;;;;;10.88;2.55;;;;;;;11.52;97.62;98375.88;8371147;28;20109;-81
2022/09/18 12:43:45;;;;;;;12.68;2.40;;;;;;;11.63;96.53;98379.75;8389070;28;20106;-82
2022/09/18 12:47:55;;;;;;;18.77;2.97;;;;;;;11.60;97.06;98380.41;8399338;28;20051;-84
2022/09/18 12:52:32;;;;;;;16.85;3.00;;;;;;;11.58;97.31;98377.25;8394908;28;20075;-83
2022/09/18 12:56:56;;;;;;;9.90;2.55;;;;;;;11.54;97.25;98381.72;8393328;28;20535;-81
2022/09/18 13:01:02;;;;;;;13.55;2.92;;;;;;;11.79;97.02;98378.03;8402902;28;20045;-81
2022/09/18 13:05:12;;;;;;;24.38;3.08;;;;;;;11.98;95.86;98385.63;8394204;28;20064;-82
2022/09/18 13:09:19;;;;;;;18.08;2.42;;;;;;;12.06;95.14;98377.41;8395360;28;20119;-80
2022/09/18 13:13:41;;;;;;;21.60;2.78;;;;;;;12.09;94.68;98371.34;8408463;28;20056;-82
2022/09/18 13:17:49;;;;;;;24.27;3.03;;;;;;;12.26;94.25;98376.56;8387222;28;20048;-82
2022/09/18 13:21:51;;;;;;;25.23;3.05;;;;;;;12.27;92.94;98372.69;8428341;28;20115;-84
2022/09/18 13:25:52;;;;;;;17.27;3.03;;;;;;;12.38;92.53;98369.53;8355687;28;1440772;-80
2022/09/18 13:29:55;;;;;;;12.32;2.58;;;;;;;12.57;91.18;98364.38;8428281;28;20093;-82
2022/09/18 13:34:26;;;;;;;18.23;2.92;;;;;;;12.80;90.57;98368.16;8384126;28;20044;-83
2022/09/18 13:38:28;;;;;;;8.30;2.10;;;;;;;14.09;88.02;98362.50;8233365;28;20081;-83
2022/09/18 13:42:31;;;;;;;9.25;1.92;;;;;;;14.94;80.91;98364.56;8233315;28;20051;-84
2022/09/18 13:46:36;;;;;;;5.43;1.42;;;;;;;15.59;74.35;98358.22;8233579;28;20129;-82
2022/09/18 13:51:07;;;;;;;9.23;1.85;;;;;;;16.32;71.26;98357.16;8233486;28;20564;-82
2022/09/18 13:55:15;;;;;;;10.35;1.80;;;;;;;16.43;70.00;98352.69;8233665;28;20063;-83
2022/09/18 13:59:47;;;;;;;9.75;1.80;;;;;;;16.81;67.86;98350.94;8233027;28;20194;-84
2022/09/18 14:03:49;;;;;;;17.23;1.90;;;;;;;16.96;66.76;98352.72;8222049;28;20051;-84
2022/09/18 14:07:55;;;;;;;4.97;1.23;;;;;;;15.83;63.25;98367.19;8261050;28;20111;-84
2022/09/18 14:12:12;;;;;;;8.82;1.05;;;;;;;15.79;64.28;98360.88;8314597;28;20054;-86
2022/09/18 14:16:20;;;;;;;9.07;1.27;;;;;;;15.71;64.90;98348.28;8407445;28;20044;-85
2022/09/18 14:20:21;;;;;;;11.25;1.40;;;;;;;15.90;64.39;98354.50;8419270;28;20056;-85
2022/09/18 14:24:36;;;;;;;8.02;1.15;;;;;;;15.35;62.81;98358.44;8401084;28;20094;-85
2022/09/18 14:28:45;;;;;;;9.80;1.52;;;;;;;15.12;64.43;98360.31;8402841;28;20056;-84
2022/09/18 14:33:18;;;;;;;9.50;1.23;;;;;;;15.04;66.13;98353.13;8406859;28;20071;-81
2022/09/18 14:37:25;;;;;;;5.93;1.17;;;;;;;14.71;66.86;98346.19;8304105;28;20057;-84
2022/09/18 14:41:30;;;;;;;4.75;1.20;;;;;;;14.41;67.61;98357.91;8308655;28;20081;-83
2022/09/18 14:45:31;;;;;;;10.68;1.60;;;;;;;14.29;66.91;98347.88;8314269;28;20088;-82
2022/09/18 14:49:33;;;;;;;7.57;1.27;;;;;;;14.02;67.00;98346.03;8281351;28;20480;-84
2022/09/18 14:53:43;;;;;;;11.77;1.75;;;;;;;13.74;66.25;98352.31;8320084;28;20085;-85
2022/09/18 14:57:54;;;;;;;10.05;1.45;;;;;;;13.51;66.32;98354.00;8313445;28;20041;-83
2022/09/18 15:02:11;;;;;;;11.60;1.67;;;;;;;13.37;67.01;98353.63;8297718;28;20075;-83
2022/09/18 15:06:20;;;;;;;11.18;1.60;;;;;;;13.14;68.18;98366.13;8289107;28;20400;-88
2022/09/18 15:10:21;;;;;;;;;;;;;;;13.11;68.90;98352.09;8320132;28;20042;-84
2022/09/18 15:14:34;;;;;;;5.38;1.20;;;;;;;13.15;69.38;98356.84;8375026;28;19924;-84
2022/09/18 15:18:41;;;;;;;7.80;1.60;;;;;;;13.09;68.75;98354.34;8398814;28;20119;-82
2022/09/18 15:22:42;;;;;;;7.40;1.70;;;;;;;13.07;68.40;98356.59;8425299;28;20070;-85
2022/09/18 15:26:46;;;;;;;5.60;1.48;;;;;;;13.15;69.17;98356.84;8393093;28;20502;-84
2022/09/18 15:30:50;;;;;;;10.20;1.67;;;;;;;13.28;69.71;98369.22;8413865;28;20075;-83
2022/09/18 15:34:52;;;;;;;8.93;1.80;;;;;;;13.23;69.49;98361.34;8411693;28;20050;-87
2022/09/18 15:38:55;;;;;;;8.18;1.40;;;;;;;12.92;69.58;98360.03;8417552;28;20075;-86
2022/09/18 15:43:02;;;;;;;10.50;1.80;;;;;;;12.69;71.06;98367.03;8414262;28;20050;-84
2022/09/18 15:47:29;;;;;;;14.05;2.45;;;;;;;12.45;72.83;98367.06;8409518;28;20555;-83
2022/09/18 15:51:34;;;;;;;6.53;1.83;;;;;;;12.22;73.51;98367.50;8376606;28;20045;-83
2022/09/18 15:55:47;;;;;;;8.48;1.67;;;;;;;12.09;74.25;98376.75;8361055;28;20526;-83
2022/09/18 15:59:53;;;;;;;11.00;2.55;;;;;;;11.98;75.12;98370.19;8357140;28;20519;-86
2022/09/18 16:03:58;;;;;;;12.35;2.22;;;;;;;11.92;74.94;98376.94;8350488;28;20060;-84
2022/09/18 16:08:05;;;;;;;11.27;2.33;;;;;;;11.78;77.83;98425.16;8365115;28;20049;-81
2022/09/18 16:12:28;;;;;;;5.68;1.08;;;;;;;10.92;84.49;98437.38;8366088;28;20079;-82
2022/09/18 16:16:29;;;;;;;10.20;1.30;;;;;;;10.46;86.34;98451.72;8381025;28;20117;-80
2022/09/18 16:20:33;;;;;;;9.60;1.52;;;;;;;10.26;87.26;98441.63;8396934;28;20052;-83
2022/09/18 16:24:36;;;;;;;7.03;1.73;;;;;;;10.05;87.57;98429.91;8386798;28;20048;-82
2022/09/18 16:28:45;;;;;;;1.73;1.25;;;;;;;10.02;87.30;98425.16;8391068;28;20052;-82
2022/09/18 16:32:46;;;;;;;1.92;0.70;;;;;;;10.05;87.31;98430.69;8396119;28;20036;-81
2022/09/18 16:36:48;;;;;;;2.17;0.93;;;;;;;10.03;87.00;98405.16;8405235;28;20059;-80
2022/09/18 16:40:49;;;;;;;4.53;1.77;;;;;;;10.07;86.51;98406.09;8398481;28;20037;-79
2022/09/18 16:44:51;;;;;;;4.68;1.13;;;;;;;10.01;86.32;98412.78;8400980;28;20060;-80
2022/09/18 16:48:52;;;;;;;2.17;0.68;;;;;;;9.85;86.86;98400.91;8423757;28;20519;-79
2022/09/18 16:52:53;;;;;;;2.08;0.85;;;;;;;9.75;87.56;98400.16;8409750;28;20052;-79
2022/09/18 16:57:00;;;;;;;2.42;0.57;;;;;;;9.66;87.95;98402.06;8422038;28;20397;-79
2022/09/18 17:01:03;;;;;;;9.95;1.05;;;;;;;9.58;88.52;98400.16;8409642;28;20053;-79
2022/09/18 17:05:05;;;;;;;10.00;0.82;;;;;;;9.50;88.98;98392.88;8417650;28;20048;-79
2022/09/18 17:09:09;;;;;;;10.48;1.20;;;;;;;9.41;89.15;98388.63;8434052;28;20055;-80
2022/09/18 17:13:10;;;;;;;8.88;2.20;;;;;;;9.39;89.28;98386.25;8387739;28;20861;-79
2022/09/18 17:17:12;;;;;;;8.73;2.28;;;;;;;9.44;89.75;98382.59;8381562;28;20076;-80
2022/09/18 17:21:13;;;;;;;11.63;2.78;;;;;;;9.48;89.83;98389.72;8383712;28;20059;-80
2022/09/18 17:25:14;;;;;;;9.05;5.38;;;;;;;9.49;89.61;98402.09;8379666;28;20399;-80
2022/09/18 17:29:15;;;;;;;14.70;5.68;;;;;;;9.39;89.88;98423.97;8346555;28;20145;-80
2022/09/18 17:33:16;;;;;;;7.97;3.28;;;;;;;9.35;90.09;98390.69;8337722;28;20052;-80
2022/09/18 17:37:17;;;;;;;7.10;3.30;;;;;;;9.34;89.92;98421.44;8367870;28;20442;-80
2022/09/18 17:41:18;;;;;;;11.95;3.20;;;;;;;9.27;90.28;98404.94;8339630;28;20132;-82
2022/09/18 17:45:19;;;;;;;7.68;3.00;;;;;;;9.26;90.58;98397.94;8412174;28;20055;-80
2022/09/18 17:49:24;;;;;;;6.55;2.25;;;;;;;9.21;90.78;98390.03;8424417;28;20135;-81
2022/09/18 17:53:26;;;;;;;14.48;2.67;;;;;;;9.16;91.43;98392.88;8406342;28;20477;-81
2022/09/18 17:57:28;;;;;;;7.25;2.90;;;;;;;9.11;91.29;98401.13;8370596;28;20064;-80
2022/09/18 18:01:29;;;;;;;6.70;2.42;;;;;;;8.97;91.69;98400.47;8347973;28;20156;-81
2022/09/18 18:05:30;;;;;;;4.97;2.33;;;;;;;8.87;91.86;98402.38;8362227;28;20044;-80
2022/09/18 18:09:33;;;;;;;3.45;1.85;;;;;;;8.79;92.09;98405.81;8376377;28;20426;-82
2022/09/18 18:13:36;;;;;;;6.97;2.00;;;;;;;8.76;92.23;98403.78;8361614;28;20109;-80
2022/09/18 18:17:39;;;;;;;5.93;1.98;;;;;;;8.71;91.93;98409.31;8360803;28;20049;-81
2022/09/18 18:21:41;;;;;;;7.82;1.67;;;;;;;8.67;91.88;98413.72;8360810;28;20457;-81
2022/09/18 18:25:42;;;;;;;5.72;1.77;;;;;;;8.65;92.02;98420.53;8362736;28;20049;-81
2022/09/18 18:29:44;;;;;;;5.28;1.83;;;;;;;8.62;92.36;98424.63;8360800;28;20394;-81
2022/09/18 18:33:45;;;;;;;6.68;1.92;;;;;;;8.62;92.58;98423.84;8370762;28;20056;-80
2022/09/18 18:37:46;;;;;;;4.93;1.70;;;;;;;8.63;92.73;98428.91;8413796;28;20070;-80
2022/09/18 18:41:49;;;;;;;5.72;1.70;;;;;;;8.63;92.61;98426.22;8404879;28;20150;-81
2022/09/18 18:45:55;;;;;;;3.10;1.50;;;;;;;8.61;92.71;98420.38;8365290;28;20048;-83
2022/09/18 18:49:58;;;;;;;7.88;1.98;;;;;;;8.61;92.77;98414.97;8400346;28;20474;-81
2022/09/18 18:54:01;;;;;;;12.27;2.33;;;;;;;8.64;92.94;98414.34;8392974;28;20094;-81
2022/09/18 18:58:02;;;;;;;6.35;2.38;;;;;;;8.68;93.20;98415.31;8397541;28;20044;-80
2022/09/18 19:02:03;;;;;;;6.18;2.20;;;;;;;8.76;92.99;98414.53;8399661;28;20059;-80
2022/09/18 19:06:04;;;;;;;12.80;2.50;;;;;;;8.76;93.89;98406.47;8428832;28;20048;-81
2022/09/18 19:10:06;;;;;;;9.55;3.13;;;;;;;8.77;94.47;98408.06;8388661;28;20070;-80
2022/09/18 19:14:15;;;;;;;10.85;2.90;;;;;;;8.78;94.80;98409.63;8396883;28;20047;-81
2022/09/18 19:18:17;;;;;;;5.20;2.50;;;;;;;8.82;94.58;98399.84;8394576;28;20044;-81
2022/09/18 19:22:19;;;;;;;6.20;2.67;;;;;;;8.82;95.10;98405.22;8394565;28;20048;-81